Airfield :







YOU CAN JOIN US ON...

 
LOGIN :

Register | Disclaimer

   EN    FR    IT 

 









Legend :    VFR   Marginal VFR   IFR   Intensive IFR   Very Intensive IFR
Visi :
Ceiling :
>= 8 km
>= 3000ft
5 to 8 km
1000 to 3000 ft
1500m to 5 km
500 to 1000 ft
800 to 1500m
200 to 500 ft
< 800m
< 200 ft
Symbols :   Thunderstorms  Fog  Heavy snow  Heavy precipitations  Wind > 20 kt







- Airport Elevation : 48 ft
- IATA code : REK


BIRK - Reykjavik

CURRENT METAR :
  • 150700Z 10008KT 9999 VCSH BKN045 OVC051 04/M02 Q1006

EXPIRED METARs :
  • 150600Z 10008K CHECK TEXT NEW ENDING ADDED BICCYFAR
  • 150500Z 13007KT 9999 FEW042 SCT160 03/M02 Q1008

TAF TAF BIRK
Valid from the 15 at 06:00 until the 16 at 06:00 UTC


150443Z 1506/1606 14008KT 9999 SCT027 BKN043 TX10/1513Z TN03/1506Z
BECMG 1506/1509 12018KT RA BKN015 OVC025
PROB40
TEMPO 1510/1514 5000 RA BR OVC010
BECMG 1514/1516 23028G38KT SHRA
TEMPO 1517/1520 27034G48KT
BECMG 1522/1600 27018KT NSW SCT030
No reported NOTAMs for that airfield.



MET'MAP, your aeronautical weather chart ! - Copyright ORBIFLY December 2007 - Disclaimer

ORBIFLY MET'MAP TEAM :

Programming & Development : Alexandra Zaïnal
Concept & Development : Baudouin d'Aumeries
Co-Development & Prog : Marc-Olivier Méhu
Technical & hardware support : Manuel Goepfert

Contact : metmap@orbifly.com




SOURCES & CREDITS :

   NOAA